»·PEaware :: SKY424 KHII-KPSP

SKY424 :: KHII-KPSP

FLIGHT INFORMATION

Flight Status: Arrived
Operator:
Sky High Charters
More flights by this operator :: More flights under this callsign
Pilot: Ben H. (9170)
Aircraft: CESSNA 310
(C310)
More flights by this aircraft type
Origin: KHII Lake Havasu City
United States
Destination: KPSP Palm Springs Intl
United States
More flights between these airports :: More routes between these airports
Route: +EED CLOWD1
File this flight plan on PilotEdge
Remarks: SKYHIGH SCENARIO 8
Altitude:
(Current/Filed)
10,000ft
Speed:
(Current/Filed)
160kts
Departed: 17-Feb-19 06:16 PM
Arrived: 17-Feb-19 07:16 PM
Distance/Time
Traveled:
115nm/1:00
Distance/Time
To Go:
Arrived

Flight Plot

Page will automatically refresh every two minutes.


Map Options




Map Legend


Flown Route
Filed Route
Departure Airport
Arrival Airport
Navaid (VOR, NDB)
Fix

Horizontal Profiles

Position Reports

Time Latitude Longitude Heading Altitude Ground
Speed
17-Feb-19 18:05 34.577287 -114.364416 65 735ft 0kts
17-Feb-19 18:06 34.577287 -114.364416 65 735ft 0kts
17-Feb-19 18:07 34.577287 -114.364416 65 735ft 0kts
17-Feb-19 18:08 34.577287 -114.364416 65 735ft 0kts
17-Feb-19 18:09 34.577287 -114.364416 65 735ft 0kts
17-Feb-19 18:10 34.577298 -114.364387 63 735ft 2kts
17-Feb-19 18:11 34.579855 -114.365772 333 735ft 0kts
17-Feb-19 18:12 34.580192 -114.365778 49 735ft 0kts
17-Feb-19 18:13 34.580192 -114.365778 48 735ft 0kts
17-Feb-19 18:14 34.580405 -114.364956 116 735ft 14kts
17-Feb-19 18:15 34.557946 -114.352069 182 1717ft 118kts
17-Feb-19 18:16 34.557055 -114.380367 316 3352ft 113kts
17-Feb-19 18:17 34.579124 -114.408923 312 4919ft 120kts
17-Feb-19 18:18 34.609230 -114.427262 335 6469ft 125kts
17-Feb-19 18:19 34.643891 -114.435253 350 8045ft 134kts
17-Feb-19 18:20 34.683401 -114.445638 340 9232ft 157kts
17-Feb-19 18:21 34.727423 -114.459718 328 10429ft 167kts
17-Feb-19 18:22 34.726737 -114.504815 249 11642ft 148kts
17-Feb-19 18:23 34.714522 -114.553200 232 12864ft 148kts
17-Feb-19 18:24 34.688165 -114.590602 232 14119ft 146kts
17-Feb-19 18:25 34.667294 -114.626831 231 15245ft 144kts
17-Feb-19 18:26 34.643003 -114.665656 230 15977ft 164kts
17-Feb-19 18:27 34.613516 -114.710038 228 15975ft 173kts
17-Feb-19 18:28 34.582179 -114.755246 228 15974ft 176kts
17-Feb-19 18:29 34.550446 -114.801003 228 15973ft 176kts
17-Feb-19 18:30 34.518710 -114.846772 228 15973ft 176kts
17-Feb-19 18:31 34.487575 -114.892585 229 15972ft 176kts
17-Feb-19 18:32 34.456657 -114.939110 229 15972ft 176kts
17-Feb-19 18:33 34.425826 -114.985410 229 15971ft 176kts
17-Feb-19 18:34 34.394553 -115.031492 229 15971ft 177kts
17-Feb-19 18:35 34.362778 -115.077328 229 15971ft 177kts
17-Feb-19 18:36 34.330535 -115.122913 229 15970ft 178kts
17-Feb-19 18:37 34.299490 -115.169964 233 15964ft 180kts
17-Feb-19 18:38 34.270289 -115.217118 233 15434ft 173kts
17-Feb-19 18:39 34.241336 -115.263772 233 14914ft 172kts
17-Feb-19 18:40 34.211255 -115.308742 231 14398ft 172kts
17-Feb-19 18:41 34.180983 -115.354020 231 13879ft 173kts
17-Feb-19 18:42 34.150767 -115.399328 231 13362ft 173kts
17-Feb-19 18:43 34.120401 -115.445022 231 12842ft 174kts
17-Feb-19 18:44 34.090225 -115.490554 231 12328ft 175kts
17-Feb-19 18:45 34.059789 -115.536577 231 11820ft 175kts
17-Feb-19 18:46 34.027629 -115.580752 229 11321ft 175kts
17-Feb-19 18:47 33.996328 -115.625052 230 11006ft 173kts
17-Feb-19 18:48 33.965235 -115.669040 230 10993ft 184kts
17-Feb-19 18:49 33.942439 -115.701214 230 10983ft 186kts
17-Feb-19 18:50 33.915556 -115.750559 263 10979ft 186kts
17-Feb-19 18:51 33.911402 -115.813408 264 10972ft 187kts
17-Feb-19 18:52 33.907519 -115.876169 264 10971ft 187kts
17-Feb-19 18:53 33.898381 -115.936414 218 10980ft 187kts
17-Feb-19 18:54 33.869067 -115.960869 216 10973ft 189kts
17-Feb-19 18:55 33.825745 -115.997072 216 10973ft 189kts
17-Feb-19 18:56 33.783491 -116.032314 216 10536ft 179kts
17-Feb-19 18:57 33.743413 -116.066694 219 9472ft 174kts
17-Feb-19 18:58 33.703640 -116.099907 216 8438ft 172kts
17-Feb-19 18:59 33.664239 -116.131758 216 7549ft 170kts
17-Feb-19 19:00 33.622461 -116.147988 138 6622ft 178kts
17-Feb-19 19:01 33.604939 -116.093737 115 5741ft 173kts
17-Feb-19 19:02 33.573492 -116.094902 272 4805ft 159kts
17-Feb-19 19:03 33.602545 -116.131662 321 3992ft 150kts
17-Feb-19 19:04 33.630480 -116.162623 305 3900ft 134kts
17-Feb-19 19:05 33.652041 -116.201951 303 3069ft 151kts
17-Feb-19 19:06 33.673679 -116.241281 304 2975ft 137kts
17-Feb-19 19:07 33.694295 -116.278510 304 2977ft 140kts
17-Feb-19 19:08 33.715666 -116.317051 304 2980ft 140kts
17-Feb-19 19:09 33.737439 -116.354919 307 2984ft 140kts
17-Feb-19 19:10 33.760101 -116.390783 307 2988ft 140kts
17-Feb-19 19:11 33.780781 -116.425767 298 2557ft 139kts
17-Feb-19 19:12 33.793932 -116.459739 294 1764ft 114kts
17-Feb-19 19:13 33.807356 -116.484478 316 1063ft 97kts
17-Feb-19 19:14 33.820056 -116.496122 322 635ft 74kts
17-Feb-19 19:15 33.829287 -116.504422 323 480ft 20kts
17-Feb-19 19:16 33.829970 -116.504417 54 480ft 0kts
17-Feb-19 19:17 33.827306 -116.501693 144 480ft 20kts
17-Feb-19 19:19 33.824436 -116.498507 55 480ft 0kts
17-Feb-19 19:20 33.824446 -116.498491 53 480ft 0kts

Navigation Log

Ident Type
Flight plan parsing failed, navigation log unavailable